Time;durP1;ratioP1;P1;durP2;ratioP2;P2;SDS_P1;SDS_P2;PMS_P1;PMS_P2;Temp;Humidity;BMP_temperature;BMP_pressure;BME280_temperature;BME280_humidity;BME280_pressure;Samples;Min_cycle;Max_cycle;Signal;HPM_P1;HPM_P2
2022/08/07 00:01:32;;;;;;;10.43;6.40;;;;;;;;;;5053925;28;20065;-58
2022/08/07 00:03:59;;;;;;;9.13;6.53;;;13.10;99.90;;;;;;5053519;28;20082;-58
2022/08/07 00:06:25;;;;;;;8.82;6.28;;;12.90;99.90;;;;;;5053609;28;20396;-58
2022/08/07 00:09:02;;;;;;;9.05;6.68;;;12.50;99.90;;;;;;5053669;28;20072;-58
2022/08/07 00:11:28;;;;;;;8.73;6.72;;;13.00;99.90;;;;;;5053544;28;20094;-57
2022/08/07 00:13:53;;;;;;;10.82;6.53;;;13.10;99.90;;;;;;5053298;28;20467;-57
2022/08/07 00:16:20;;;;;;;10.60;6.70;;;13.10;99.90;;;;;;5053427;28;20037;-58
2022/08/07 00:18:46;;;;;;;8.82;6.50;;;12.90;99.90;;;;;;5053590;28;20381;-57
2022/08/07 00:21:12;;;;;;;8.05;6.75;;;13.00;99.90;;;;;;5035755;28;20056;-57
2022/08/07 00:23:39;;;;;;;8.95;6.43;;;12.90;99.90;;;;;;5052677;28;20049;-58
2022/08/07 00:26:07;;;;;;;7.43;6.25;;;13.20;99.90;;;;;;5053469;28;20040;-58
2022/08/07 00:28:33;;;;;;;8.77;6.72;;;13.00;99.90;;;;;;5053263;28;20037;-59
2022/08/07 00:31:01;;;;;;;10.38;6.72;;;12.60;99.90;;;;;;5053033;28;20037;-58
2022/08/07 00:33:27;;;;;;;9.93;6.60;;;12.70;99.90;;;;;;5053328;28;20049;-58
2022/08/07 00:35:56;;;;;;;9.13;6.75;;;12.80;99.90;;;;;;5053272;28;20404;-58
2022/08/07 00:38:22;;;;;;;12.23;6.88;;;12.50;99.90;;;;;;5053469;28;20037;-58
2022/08/07 00:40:49;;;;;;;10.48;6.80;;;12.90;99.90;;;;;;5053009;28;20037;-58
2022/08/07 00:43:15;;;;;;;9.35;7.07;;;12.50;99.90;;;;;;5053043;28;20429;-58
2022/08/07 00:45:44;;;;;;;7.53;6.65;;;12.30;99.90;;;;;;5052947;28;20492;-58
2022/08/07 00:48:10;;;;;;;10.00;6.85;;;12.50;99.90;;;;;;5053083;28;20037;-58
2022/08/07 00:50:37;;;;;;;9.30;7.13;;;12.80;99.90;;;;;;5052876;28;20124;-58
2022/08/07 00:53:03;;;;;;;9.20;6.85;;;12.40;99.90;;;;;;5052910;28;20041;-58
2022/08/07 00:55:29;;;;;;;9.77;7.00;;;;;;;;;;5052733;28;20033;-58
2022/08/07 00:57:55;;;;;;;9.63;7.25;;;11.30;99.90;;;;;;5053054;28;20041;-58
2022/08/07 01:00:26;;;;;;;8.85;6.65;;;12.40;99.90;;;;;;5117381;23;20736;-62
2022/08/07 01:02:54;;;;;;;9.32;6.93;;;;;;;;;;5029546;28;20527;-62
2022/08/07 01:05:23;;;;;;;10.43;7.03;;;;;;;;;;5014694;28;20156;-62
2022/08/07 01:07:49;;;;;;;10.30;7.35;;;12.10;99.90;;;;;;5031485;28;20116;-62
2022/08/07 01:10:16;;;;;;;10.68;6.85;;;;;;;;;;5031523;28;20537;-62
2022/08/07 01:12:42;;;;;;;8.77;7.45;;;12.30;99.90;;;;;;5031412;28;20310;-62
2022/08/07 01:15:08;;;;;;;11.50;7.82;;;12.20;99.90;;;;;;5031670;28;20041;-62
2022/08/07 01:17:34;;;;;;;10.75;7.60;;;12.00;99.90;;;;;;5082732;23;20065;-57
2022/08/07 01:20:10;;;;;;;11.05;7.22;;;12.10;99.90;;;;;;5013128;28;20068;-57
2022/08/07 01:22:37;;;;;;;9.98;7.43;;;12.10;99.90;;;;;;5031901;28;20033;-56
2022/08/07 01:25:03;;;;;;;11.85;7.35;;;12.10;99.90;;;;;;5030926;28;20173;-57
2022/08/07 01:27:29;;;;;;;9.15;7.40;;;;;;;;;;5031718;28;20041;-57
2022/08/07 01:29:55;;;;;;;10.55;7.30;;;12.10;99.90;;;;;;5013527;28;20045;-57
2022/08/07 01:32:21;;;;;;;13.35;8.13;;;12.00;99.90;;;;;;5031585;28;20490;-57
2022/08/07 01:34:47;;;;;;;11.05;7.55;;;;;;;;;;5030761;28;20045;-56
2022/08/07 01:37:16;;;;;;;11.38;7.63;;;;;;;;;;5031653;28;20041;-57
2022/08/07 01:39:43;;;;;;;11.02;8.07;;;12.70;99.90;;;;;;5031247;28;20129;-57
2022/08/07 01:42:08;;;;;;;12.95;8.32;;;12.00;99.90;;;;;;5032607;28;20033;-57
2022/08/07 01:44:35;;;;;;;15.60;8.32;;;11.90;99.90;;;;;;5035483;28;20400;-57
2022/08/07 01:47:01;;;;;;;12.38;8.23;;;12.00;99.90;;;;;;5034850;28;20087;-57
2022/08/07 01:49:27;;;;;;;10.35;8.18;;;11.90;99.90;;;;;;5034966;28;20458;-57
2022/08/07 01:51:54;;;;;;;11.75;8.57;;;11.80;99.90;;;;;;5017404;28;20033;-57
2022/08/07 01:54:21;;;;;;;11.30;7.72;;;12.20;99.90;;;;;;5034856;28;20449;-58
2022/08/07 01:57:08;;;;;;;13.20;8.07;;;11.80;99.90;;;;;;5034169;28;20492;-57
2022/08/07 01:59:52;;;;;;;11.73;7.90;;;11.80;99.90;;;;;;5034936;28;20052;-57
2022/08/07 02:02:34;;;;;;;12.25;7.80;;;11.80;99.90;;;;;;5035269;28;20036;-57
2022/08/07 02:05:07;;;;;;;10.88;7.80;;;11.50;99.90;;;;;;5034240;28;20052;-57
2022/08/07 02:07:39;;;;;;;11.68;8.18;;;11.70;99.90;;;;;;5035191;28;20099;-57
2022/08/07 02:10:07;;;;;;;12.38;8.00;;;11.80;99.90;;;;;;5034341;28;20076;-58
2022/08/07 02:12:39;;;;;;;11.02;8.18;;;11.70;99.90;;;;;;5034774;28;20037;-58
2022/08/07 02:15:07;;;;;;;12.15;8.55;;;11.70;99.90;;;;;;5034566;28;20532;-57
2022/08/07 02:17:33;;;;;;;12.00;8.60;;;11.90;99.90;;;;;;5016843;28;20053;-57
2022/08/07 02:20:01;;;;;;;13.82;8.35;;;11.70;99.90;;;;;;5000134;28;20045;-58
2022/08/07 02:22:28;;;;;;;11.45;8.88;;;11.70;99.90;;;;;;5034665;28;20045;-58
2022/08/07 02:24:56;;;;;;;13.43;8.43;;;11.70;99.90;;;;;;5016013;28;20045;-58
2022/08/07 02:27:24;;;;;;;12.27;8.60;;;11.60;99.90;;;;;;5034749;28;20438;-58
2022/08/07 02:29:51;;;;;;;13.38;8.55;;;11.60;99.90;;;;;;5033990;28;20145;-58
2022/08/07 02:32:18;;;;;;;11.85;8.40;;;11.50;99.90;;;;;;5016866;28;20074;-59
2022/08/07 02:34:47;;;;;;;10.95;8.98;;;11.60;99.90;;;;;;5034019;28;20096;-58
2022/08/07 02:37:14;;;;;;;15.27;8.73;;;11.60;99.90;;;;;;5034316;28;20049;-57
2022/08/07 02:39:43;;;;;;;11.90;8.45;;;13.20;99.90;;;;;;5033663;28;20037;-58
2022/08/07 02:42:09;;;;;;;11.93;8.63;;;;;;;;;;5034300;28;20030;-58
2022/08/07 02:44:36;;;;;;;14.32;9.30;;;11.70;99.90;;;;;;5034164;28;20046;-57
2022/08/07 02:47:04;;;;;;;13.30;8.77;;;11.50;99.90;;;;;;5033968;28;20064;-58
2022/08/07 02:49:29;;;;;;;12.40;8.93;;;11.90;99.90;;;;;;5034078;28;20046;-58
2022/08/07 02:51:59;;;;;;;14.25;8.15;;;11.40;99.90;;;;;;5033340;28;20045;-58
2022/08/07 02:54:27;;;;;;;11.52;8.30;;;11.30;99.90;;;;;;5033410;28;20392;-58
2022/08/07 02:56:55;;;;;;;12.52;8.88;;;11.50;99.90;;;;;;5033672;28;20124;-58
2022/08/07 02:59:25;;;;;;;12.07;8.43;;;11.50;99.90;;;;;;5033795;28;20034;-59
2022/08/07 03:01:52;;;;;;;11.35;9.00;;;12.00;99.90;;;;;;5033419;28;20073;-59
2022/08/07 03:04:20;;;;;;;15.23;9.27;;;11.60;99.90;;;;;;5033804;28;20123;-59
2022/08/07 03:06:47;;;;;;;12.55;8.60;;;11.40;99.90;;;;;;5033377;28;20077;-58
2022/08/07 03:09:13;;;;;;;13.38;9.43;;;;;;;;;;5032728;28;20041;-59
2022/08/07 03:11:39;;;;;;;13.88;9.18;;;;;;;;;;5016074;28;20041;-59
2022/08/07 03:14:06;;;;;;;12.32;8.77;;;11.20;99.90;;;;;;5033207;28;20128;-58
2022/08/07 03:16:33;;;;;;;12.57;9.23;;;11.00;99.90;;;;;;5033667;28;20399;-58
2022/08/07 03:18:59;;;;;;;12.80;9.32;;;11.40;99.90;;;;;;5032877;28;20444;-58
2022/08/07 03:21:26;;;;;;;12.38;9.38;;;11.20;99.90;;;;;;5033702;28;20034;-59
2022/08/07 03:23:56;;;;;;;13.48;9.18;;;11.30;99.90;;;;;;5033045;28;20037;-59
2022/08/07 03:26:31;;;;;;;13.07;8.95;;;11.30;99.90;;;;;;5033577;28;20084;-59
2022/08/07 03:29:00;;;;;;;14.75;10.02;;;11.20;99.90;;;;;;5032993;28;20049;-58
2022/08/07 03:31:27;;;;;;;14.15;9.75;;;11.30;99.90;;;;;;5033441;28;20073;-59
2022/08/07 03:33:57;;;;;;;15.13;10.45;;;11.20;99.90;;;;;;5032392;28;20116;-59
2022/08/07 03:36:26;;;;;;;14.20;9.27;;;11.10;99.90;;;;;;5033061;28;20084;-59
2022/08/07 03:38:54;;;;;;;17.13;10.02;;;11.40;99.90;;;;;;5032547;28;20037;-59
2022/08/07 03:41:20;;;;;;;17.65;10.25;;;11.10;99.90;;;;;;5033284;28;20041;-59
2022/08/07 03:43:46;;;;;;;14.57;9.55;;;11.40;99.90;;;;;;5032605;28;20105;-58
2022/08/07 03:46:13;;;;;;;17.58;10.52;;;11.30;99.90;;;;;;5032615;28;20033;-59
2022/08/07 03:48:42;;;;;;;19.67;11.38;;;11.10;99.90;;;;;;5015461;28;20088;-59
2022/08/07 03:51:10;;;;;;;15.63;10.38;;;11.20;99.90;;;;;;4998862;28;20048;-58
2022/08/07 03:53:36;;;;;;;15.65;10.70;;;10.80;99.90;;;;;;5032313;28;20093;-58
2022/08/07 03:56:03;;;;;;;16.92;10.02;;;;;;;;;;5032309;28;20037;-58
2022/08/07 03:58:29;;;;;;;15.75;11.48;;;11.20;99.90;;;;;;5032734;28;20072;-57
2022/08/07 04:00:56;;;;;;;15.65;10.93;;;10.90;99.90;;;;;;5032285;28;20441;-57
2022/08/07 04:03:23;;;;;;;17.30;10.35;;;10.90;99.90;;;;;;5032393;28;20052;-57
2022/08/07 04:05:49;;;;;;;14.05;10.18;;;;;;;;;;5031557;28;20041;-57
2022/08/07 04:08:15;;;;;;;14.23;9.48;;;11.00;99.90;;;;;;5032146;28;20099;-57
2022/08/07 04:10:42;;;;;;;14.55;10.18;;;10.90;99.90;;;;;;5014570;28;20048;-57
2022/08/07 04:13:12;;;;;;;15.20;10.35;;;10.90;99.90;;;;;;5032031;28;20037;-57
2022/08/07 04:15:38;;;;;;;16.67;10.80;;;11.00;99.90;;;;;;5032769;28;20397;-58
2022/08/07 04:18:04;;;;;;;14.68;9.73;;;;;;;;;;5031641;28;20061;-57
2022/08/07 04:20:30;;;;;;;14.27;9.98;;;10.80;99.90;;;;;;5032567;28;20045;-58
2022/08/07 04:22:57;;;;;;;13.85;10.50;;;11.00;99.90;;;;;;5031508;28;20124;-57
2022/08/07 04:25:23;;;;;;;13.93;10.52;;;11.00;99.90;;;;;;5032468;28;20091;-56
2022/08/07 04:27:50;;;;;;;15.60;10.35;;;;;;;;;;5031817;28;20029;-55
2022/08/07 04:30:16;;;;;;;14.35;10.35;;;;;;;;;;5031817;28;20104;-56
2022/08/07 04:32:42;;;;;;;16.15;10.60;;;11.00;99.90;;;;;;5014430;28;20041;-59
2022/08/07 04:35:08;;;;;;;16.10;11.07;;;10.90;99.90;;;;;;5031980;28;20041;-55
2022/08/07 04:37:34;;;;;;;16.70;10.32;;;11.00;99.90;;;;;;5032169;28;20370;-56
2022/08/07 04:40:01;;;;;;;17.40;11.05;;;;;;;;;;5031321;28;20038;-56
2022/08/07 04:42:29;;;;;;;16.08;10.77;;;;;;;;;;5031889;28;20072;-56
2022/08/07 04:44:57;;;;;;;13.88;10.07;;;11.00;99.90;;;;;;5031675;28;20056;-55
2022/08/07 04:47:33;;;;;;;17.63;10.57;;;11.10;99.90;;;;;;5032260;28;20436;-55
2022/08/07 04:50:24;;;;;;;15.18;10.65;;;11.20;99.90;;;;;;5031543;28;20033;-56
2022/08/07 04:52:52;;;;;;;18.98;11.27;;;11.30;99.90;;;;;;5031063;28;20042;-56
2022/08/07 04:55:27;;;;;;;14.90;9.77;;;11.50;99.90;;;;;;5031900;28;20041;-57
2022/08/07 04:57:59;;;;;;;14.40;9.02;;;11.60;99.90;;;;;;5031635;28;20386;-56
2022/08/07 05:00:50;;;;;;;13.10;9.75;;;11.70;99.90;;;;;;5031652;28;20046;-56
2022/08/07 05:03:40;;;;;;;13.98;10.07;;;11.70;99.90;;;;;;5013989;28;20051;-57
2022/08/07 05:06:13;;;;;;;13.50;10.30;;;11.80;99.90;;;;;;5031569;28;20072;-57
2022/08/07 05:08:53;;;;;;;16.92;10.63;;;11.90;99.90;;;;;;5031629;28;20072;-57
2022/08/07 05:11:26;;;;;;;14.25;10.57;;;11.80;99.90;;;;;;5031979;28;20397;-57
2022/08/07 05:14:16;;;;;;;15.02;10.32;;;12.10;99.90;;;;;;5031207;28;20494;-57
2022/08/07 05:16:46;;;;;;;14.27;10.52;;;12.70;99.90;;;;;;5033482;28;20045;-57
2022/08/07 05:19:19;;;;;;;13.25;10.05;;;12.40;99.90;;;;;;5035831;28;20378;-57
2022/08/07 05:21:53;;;;;;;15.20;10.30;;;13.50;99.90;;;;;;5035009;28;20045;-57
2022/08/07 05:24:20;;;;;;;11.60;9.55;;;14.60;99.90;;;;;;5017583;28;20565;-56
2022/08/07 05:26:49;;;;;;;11.75;9.13;;;15.70;99.90;;;;;;5035292;28;20408;-56
2022/08/07 05:29:18;;;;;;;10.20;8.80;;;17.00;99.90;;;;;;5035478;28;20480;-57
2022/08/07 05:31:45;;;;;;;14.43;9.55;;;17.90;99.90;;;;;;5017600;28;20081;-56
2022/08/07 05:34:12;;;;;;;13.68;9.07;;;19.00;99.90;;;;;;5034866;28;20088;-56
2022/08/07 05:36:41;;;;;;;10.02;8.77;;;20.10;99.90;;;;;;5035206;28;20041;-56
2022/08/07 05:39:08;;;;;;;9.68;8.52;;;20.50;99.90;;;;;;5035316;28;20065;-57
2022/08/07 05:41:34;;;;;;;9.93;8.20;;;20.60;99.90;;;;;;5035712;28;20038;-57
2022/08/07 05:44:00;;;;;;;10.43;8.65;;;22.10;99.90;;;;;;5035020;28;20037;-57
2022/08/07 05:46:26;;;;;;;9.57;8.32;;;22.30;99.20;;;;;;5035508;28;20041;-56
2022/08/07 05:48:52;;;;;;;12.50;8.05;;;23.80;99.90;;;;;;5034030;28;20064;-57
2022/08/07 05:51:19;;;;;;;8.82;7.32;;;23.90;93.10;;;;;;5035369;28;20084;-57
2022/08/07 05:53:45;;;;;;;10.65;8.30;;;24.60;90.40;;;;;;5034390;28;20467;-57
2022/08/07 05:56:14;;;;;;;11.40;8.18;;;25.60;92.30;;;;;;5035310;28;20069;-56
2022/08/07 05:58:41;;;;;;;11.60;8.02;;;25.80;79.80;;;;;;5034624;28;20041;-56
2022/08/07 06:01:09;;;;;;;9.57;7.65;;;27.20;78.40;;;;;;5034762;28;20069;-56
2022/08/07 06:03:37;;;;;;;10.45;8.20;;;26.70;77.60;;;;;;5016385;28;20042;-57
2022/08/07 06:06:05;;;;;;;10.70;7.60;;;27.90;72.90;;;;;;5034680;28;20397;-57
2022/08/07 06:08:32;;;;;;;10.68;8.25;;;28.00;65.20;;;;;;5034470;28;20489;-58
2022/08/07 06:10:58;;;;;;;13.00;8.60;;;28.40;62.50;;;;;;5017011;28;20120;-58
2022/08/07 06:13:24;;;;;;;12.23;8.45;;;28.90;60.40;;;;;;5034453;28;20116;-58
2022/08/07 06:15:50;;;;;;;10.18;8.45;;;29.20;58.20;;;;;;5034332;28;20497;-58
2022/08/07 06:18:17;;;;;;;10.13;8.38;;;29.20;56.90;;;;;;5016423;28;20064;-58
2022/08/07 06:20:44;;;;;;;10.95;8.10;;;29.00;56.40;;;;;;5033934;28;20400;-57
2022/08/07 06:23:10;;;;;;;12.10;8.20;;;28.70;56.00;;;;;;5034461;28;20414;-57
2022/08/07 06:25:39;;;;;;;10.55;7.80;;;28.60;55.60;;;;;;5034636;28;20477;-57
2022/08/07 06:28:06;;;;;;;10.05;8.05;;;28.50;54.20;;;;;;5015623;28;20085;-58
2022/08/07 06:30:33;;;;;;;12.63;8.60;;;28.50;53.60;;;;;;5034438;28;20571;-57
2022/08/07 06:33:00;;;;;;;10.13;8.10;;;28.50;53.80;;;;;;5033246;28;20125;-57
2022/08/07 06:35:26;;;;;;;12.00;7.55;;;28.70;59.40;;;;;;5034496;28;20119;-58
2022/08/07 06:37:52;;;;;;;11.32;7.60;;;29.50;52.10;;;;;;5034171;28;20480;-60
2022/08/07 06:40:18;;;;;;;10.00;7.60;;;30.30;51.10;;;;;;5034419;28;20446;-58
2022/08/07 06:42:47;;;;;;;8.43;7.20;;;30.70;49.70;;;;;;5033614;28;20037;-58
2022/08/07 06:45:15;;;;;;;10.15;7.65;;;31.50;54.90;;;;;;5034099;28;20511;-58
2022/08/07 06:47:41;;;;;;;9.98;7.22;;;32.50;53.90;;;;;;5033799;28;20053;-58
2022/08/07 06:50:08;;;;;;;7.93;6.50;;;31.90;46.10;;;;;;5033948;28;20048;-58
2022/08/07 06:52:36;;;;;;;8.27;6.60;;;32.20;45.80;;;;;;5034227;28;20492;-58
2022/08/07 06:55:14;;;;;;;11.35;6.65;;;32.60;44.80;;;;;;5032786;28;20046;-58
2022/08/07 06:57:40;;;;;;;9.88;7.03;;;32.50;44.10;;;;;;5033776;28;20045;-58
2022/08/07 07:00:07;;;;;;;9.57;6.70;;;32.70;51.20;;;;;;5033232;28;20045;-59
2022/08/07 07:02:34;;;;;;;9.50;6.28;;;32.70;43.70;;;;;;5016000;28;20087;-58
2022/08/07 07:05:00;;;;;;;9.88;6.03;;;33.00;51.20;;;;;;5033026;28;20226;-58
2022/08/07 07:07:26;;;;;;;10.07;6.30;;;33.50;50.80;;;;;;5033617;28;20108;-59
2022/08/07 07:09:51;;;;;;;10.23;6.20;;;33.50;42.00;;;;;;5033217;28;20507;-59
2022/08/07 07:12:35;;;;;;;8.45;5.78;;;33.70;47.90;;;;;;5033723;28;20401;-59
2022/08/07 07:15:09;;;;;;;7.13;5.80;;;33.40;41.50;;;;;;5032901;28;20037;-63
2022/08/07 07:17:43;;;;;;;7.75;5.78;;;33.50;40.40;;;;;;5033167;28;20033;-59
2022/08/07 07:20:15;;;;;;;8.15;5.93;;;33.20;41.20;;;;;;5033252;28;20068;-59
2022/08/07 07:22:42;;;;;;;7.22;5.60;;;33.20;47.60;;;;;;5033365;28;20076;-59
2022/08/07 07:25:10;;;;;;;9.60;6.43;;;33.20;40.70;;;;;;5032958;28;20122;-58
2022/08/07 07:27:41;;;;;;;8.00;6.00;;;33.40;40.00;;;;;;5033338;28;20045;-57
2022/08/07 07:30:08;;;;;;;8.25;6.10;;;33.30;40.10;;;;;;5032688;28;20056;-57
2022/08/07 07:32:37;;;;;;;8.55;6.40;;;32.80;41.00;;;;;;5012767;28;20056;-58
2022/08/07 07:35:04;;;;;;;9.40;6.00;;;32.10;42.20;;;;;;5021240;28;20477;-57
2022/08/07 07:37:32;;;;;;;11.73;6.20;;;31.50;43.70;;;;;;5031976;28;20120;-57
2022/08/07 07:40:04;;;;;;;7.30;6.20;;;31.60;43.50;;;;;;5030261;28;20603;-57
2022/08/07 07:42:32;;;;;;;8.50;5.90;;;31.50;43.20;;;;;;5014483;28;20092;-57
2022/08/07 07:45:03;;;;;;;8.70;5.78;;;30.90;50.20;;;;;;5030966;28;20473;-57
2022/08/07 07:47:30;;;;;;;6.53;5.50;;;30.10;50.00;;;;;;5014689;28;20489;-58
2022/08/07 07:49:57;;;;;;;7.07;5.57;;;28.30;43.70;;;;;;5030557;28;20396;-57
2022/08/07 07:52:24;;;;;;;8.50;5.10;;;29.50;45.90;;;;;;5032464;28;20053;-57
2022/08/07 07:54:51;;;;;;;7.95;5.05;;;29.10;46.60;;;;;;5030956;28;20492;-57
2022/08/07 07:57:20;;;;;;;6.88;5.07;;;28.40;47.10;;;;;;5024846;28;20033;-57
2022/08/07 07:59:48;;;;;;;6.80;4.95;;;28.10;47.70;;;;;;5011625;28;20374;-57
2022/08/07 08:02:16;;;;;;;8.95;5.25;;;27.60;57.00;;;;;;5012346;28;20060;-57
2022/08/07 08:04:44;;;;;;;8.35;5.22;;;27.80;49.10;;;;;;5010363;28;20057;-57
2022/08/07 08:07:10;;;;;;;7.78;5.63;;;27.70;49.20;;;;;;5012181;28;20049;-57
2022/08/07 08:09:38;;;;;;;9.68;5.28;;;28.20;54.70;;;;;;5012255;28;20045;-57
2022/08/07 08:12:05;;;;;;;6.75;5.10;;;28.10;49.30;;;;;;5011678;28;20402;-58
2022/08/07 08:14:31;;;;;;;6.75;4.80;;;28.50;49.50;;;;;;5011395;28;20050;-57
2022/08/07 08:16:59;;;;;;;7.70;5.30;;;28.60;49.00;;;;;;5009810;28;20038;-57
2022/08/07 08:19:27;;;;;;;10.65;5.90;;;28.80;48.60;;;;;;5026274;28;20049;-57
2022/08/07 08:27:34;;;;;;;8.27;5.20;;;28.50;48.40;;;;;;5042566;28;20502;-58
2022/08/07 08:30:05;;;;;;;6.05;4.70;;;28.60;47.90;;;;;;5013776;28;20045;-57
2022/08/07 08:32:35;;;;;;;7.38;5.25;;;28.40;47.40;;;;;;5032460;28;20048;-58
2022/08/07 08:35:02;;;;;;;7.25;5.18;;;28.30;47.80;;;;;;5031665;28;20092;-58
2022/08/07 08:37:33;;;;;;;6.68;5.20;;;28.50;48.30;;;;;;5031996;28;20392;-58
2022/08/07 08:40:00;;;;;;;6.18;4.80;;;28.60;48.20;;;;;;5032086;28;20053;-58
2022/08/07 08:42:52;;;;;;;7.22;4.70;;;28.70;48.60;;;;;;5014365;28;20068;-58
2022/08/07 08:45:27;;;;;;;8.07;4.93;;;28.70;48.20;;;;;;5021341;28;20038;-58
2022/08/07 08:48:08;;;;;;;5.95;4.72;;;28.80;54.20;;;;;;5038630;28;20041;-58
2022/08/07 08:50:40;;;;;;;8.32;4.70;;;28.60;48.00;;;;;;5043135;28;20056;-59
2022/08/07 08:53:21;;;;;;;9.32;5.22;;;28.50;48.00;;;;;;5051577;28;20037;-60
2022/08/07 08:55:55;;;;;;;7.22;5.15;;;28.50;48.00;;;;;;5051249;28;20040;-60
2022/08/07 08:58:42;;;;;;;6.72;4.80;;;28.20;48.30;;;;;;5051430;28;20037;-60
2022/08/07 09:01:18;;;;;;;7.03;4.88;;;28.10;49.30;;;;;;5051772;28;20421;-60
2022/08/07 09:03:56;;;;;;;6.40;4.82;;;28.20;49.90;;;;;;5051088;28;20055;-60
2022/08/07 09:07:00;;;;;;;7.82;4.97;;;28.40;49.80;;;;;;5051744;28;20076;-58
2022/08/07 09:09:47;;;;;;;6.63;4.80;;;28.40;48.40;;;;;;5051854;28;20049;-60
2022/08/07 09:12:34;;;;;;;10.40;4.93;;;28.50;49.60;;;;;;5032951;28;20124;-59
2022/08/07 09:15:23;;;;;;;6.93;4.95;;;28.50;49.90;;;;;;5050955;28;20480;-60
2022/08/07 09:18:25;;;;;;;7.00;5.18;;;28.30;53.60;;;;;;5051149;28;20057;-59
2022/08/07 09:20:56;;;;;;;6.15;4.50;;;28.20;48.20;;;;;;5051348;28;20085;-59
2022/08/07 09:23:38;;;;;;;8.88;4.78;;;28.20;49.60;;;;;;5051690;28;20048;-59
2022/08/07 09:26:44;;;;;;;7.90;4.60;;;28.00;49.20;;;;;;5050817;28;20407;-59
2022/08/07 09:29:16;;;;;;;;;;;27.70;49.60;;;;;;5014017;28;20515;-60
2022/08/07 09:32:19;;;;;;;9.38;4.18;;;27.70;50.30;;;;;;5051423;28;19916;-59
2022/08/07 09:35:11;;;;;;;6.70;4.30;;;27.50;57.20;;;;;;5050540;28;20395;-60
2022/08/07 09:37:53;;;;;;;5.13;3.92;;;27.60;50.20;;;;;;5051637;28;20421;-57
2022/08/07 09:40:34;;;;;;;6.57;4.40;;;27.70;50.90;;;;;;5048053;28;20037;-59
2022/08/07 09:43:21;;;;;;;8.70;4.55;;;27.70;50.30;;;;;;5031127;28;20120;-58
2022/08/07 09:46:20;;;;;;;7.80;3.80;;;27.70;50.50;;;;;;5031025;28;20045;-58
2022/08/07 09:48:56;;;;;;;5.95;4.28;;;27.70;49.80;;;;;;5036348;28;20322;-59
2022/08/07 09:51:46;;;;;;;4.60;3.38;;;27.70;50.60;;;;;;5031864;28;20040;-58
2022/08/07 09:54:32;;;;;;;7.43;3.85;;;27.70;49.50;;;;;;5031618;28;20076;-58
2022/08/07 09:57:37;;;;;;;7.43;3.30;;;27.60;48.80;;;;;;5030683;28;20041;-58
2022/08/07 10:00:19;;;;;;;3.78;3.05;;;27.60;48.50;;;;;;5030925;28;20132;-58
2022/08/07 10:03:25;;;;;;;7.25;3.70;;;27.50;49.20;;;;;;5031689;28;20494;-59
2022/08/07 10:05:56;;;;;;;;;;;27.50;48.80;;;;;;5035165;28;20045;-58
2022/08/07 10:08:51;;;;;;;4.88;3.13;;;27.20;49.50;;;;;;5017693;28;19917;-58
2022/08/07 10:11:36;;;;;;;5.28;3.20;;;27.10;50.40;;;;;;5034606;28;20056;-58
2022/08/07 10:14:08;;;;;;;4.20;3.17;;;26.90;50.20;;;;;;5034360;28;20063;-59
2022/08/07 10:17:19;;;;;;;3.47;2.83;;;26.20;56.20;;;;;;5034884;28;20393;-58
2022/08/07 10:19:55;;;;;;;4.13;3.10;;;26.40;49.40;;;;;;5034419;28;20455;-58
2022/08/07 10:22:30;;;;;;;8.30;3.45;;;26.10;50.00;;;;;;5016849;28;20076;-59
2022/08/07 10:25:14;;;;;;;5.78;3.95;;;26.00;50.90;;;;;;5033761;28;20045;-59
2022/08/07 10:28:12;;;;;;;6.23;3.33;;;26.00;51.40;;;;;;5034892;28;20056;-58
2022/08/07 10:31:03;;;;;;;5.28;3.63;;;26.30;51.60;;;;;;4935047;29;20212;-58
2022/08/07 10:33:47;;;;;;;8.23;3.40;;;26.50;51.70;;;;;;4935215;29;20060;-58
2022/08/07 10:36:39;;;;;;;7.13;3.20;;;26.60;51.70;;;;;;4935575;29;20088;-58
2022/08/07 10:39:32;;;;;;;6.57;3.25;;;26.70;50.40;;;;;;4934285;29;20563;-57
2022/08/07 10:42:22;;;;;;;7.53;3.10;;;26.60;50.70;;;;;;4918735;29;20047;-58
2022/08/07 10:45:29;;;;;;;3.92;2.83;;;26.70;50.40;;;;;;4933975;29;20039;-57
2022/08/07 10:47:58;;;;;;;5.93;3.10;;;26.80;50.80;;;;;;4914910;29;20111;-57
2022/08/07 10:50:47;;;;;;;5.55;3.20;;;26.90;50.20;;;;;;4896650;29;20175;-56
2022/08/07 10:53:25;;;;;;;3.83;3.00;;;27.00;50.30;;;;;;4926492;29;20129;-58
2022/08/07 10:55:57;;;;;;;6.35;3.20;;;27.00;50.50;;;;;;4943915;29;20095;-57
2022/08/07 10:58:43;;;;;;;3.67;2.70;;;27.00;50.20;;;;;;4939224;29;20039;-57
2022/08/07 11:01:29;;;;;;;7.03;3.22;;;26.80;55.70;;;;;;4934605;29;20572;-57
2022/08/07 11:04:16;;;;;;;5.53;2.83;;;27.00;49.60;;;;;;4917662;29;20189;-57
2022/08/07 11:06:46;;;;;;;7.70;3.40;;;26.90;49.60;;;;;;4988118;28;20108;-57
2022/08/07 11:09:18;;;;;;;4.18;2.47;;;26.70;55.90;;;;;;4996147;28;20124;-59
2022/08/07 11:12:08;;;;;;;6.05;2.90;;;26.70;49.30;;;;;;4996675;28;20180;-59
2022/08/07 11:14:46;;;;;;;4.40;2.75;;;26.70;48.80;;;;;;4995703;28;20132;-59
2022/08/07 11:17:28;;;;;;;4.25;2.50;;;26.70;53.20;;;;;;5013781;28;20117;-58
2022/08/07 11:20:09;;;;;;;5.30;2.70;;;26.60;48.70;;;;;;5013362;28;20144;-58
2022/08/07 11:23:00;;;;;;;5.32;2.75;;;26.50;48.80;;;;;;5013520;28;20145;-58
2022/08/07 11:25:43;;;;;;;5.03;2.80;;;26.50;49.60;;;;;;5013590;28;20104;-58
2022/08/07 11:28:35;;;;;;;4.32;2.78;;;26.60;49.80;;;;;;5013070;28;20070;-58
2022/08/07 11:31:25;;;;;;;5.47;2.78;;;26.60;49.20;;;;;;4936574;29;20535;-58
2022/08/07 11:34:02;;;;;;;5.47;2.75;;;26.60;48.90;;;;;;4952522;29;20445;-58
2022/08/07 11:36:43;;;;;;;4.55;2.80;;;26.50;48.50;;;;;;4952943;29;20562;-58
2022/08/07 11:39:29;;;;;;;3.38;2.60;;;26.90;54.40;;;;;;4952393;29;20399;-58
2022/08/07 11:42:06;;;;;;;4.25;2.58;;;26.50;49.10;;;;;;4952563;29;20183;-58
2022/08/07 11:44:40;;;;;;;3.85;2.60;;;26.50;48.60;;;;;;4952906;29;20126;-58
2022/08/07 11:47:24;;;;;;;4.47;2.70;;;26.40;48.10;;;;;;4952802;29;20117;-58
2022/08/07 11:50:06;;;;;;;7.73;2.93;;;26.40;48.20;;;;;;4952092;29;20051;-58
2022/08/07 11:53:00;;;;;;;4.32;2.90;;;26.20;54.50;;;;;;4950356;29;20134;-58
2022/08/07 11:56:03;;;;;;;3.78;2.70;;;26.60;49.90;;;;;;4952253;29;20055;-58
2022/08/07 11:58:47;;;;;;;7.63;2.80;;;26.70;48.30;;;;;;4947375;29;20062;-61
2022/08/07 12:01:34;;;;;;;3.33;2.80;;;26.80;49.20;;;;;;4950649;29;20051;-62
2022/08/07 12:04:06;;;;;;;11.57;3.35;;;26.90;54.80;;;;;;4951380;29;20050;-62
2022/08/07 12:06:59;;;;;;;5.82;2.75;;;26.80;48.80;;;;;;4951420;29;20047;-60
2022/08/07 12:09:41;;;;;;;5.65;3.03;;;26.70;48.90;;;;;;5012424;28;20046;-60
2022/08/07 12:12:21;;;;;;;3.08;2.65;;;26.80;49.60;;;;;;5012343;28;20504;-60
2022/08/07 12:14:54;;;;;;;5.70;2.80;;;27.00;49.60;;;;;;5012216;28;20038;-62
2022/08/07 12:17:22;;;;;;;4.40;2.78;;;27.00;48.90;;;;;;4995264;28;20042;-61
2022/08/07 12:19:51;;;;;;;8.27;2.80;;;27.00;48.40;;;;;;5011951;28;20125;-60
2022/08/07 12:22:34;;;;;;;8.07;2.70;;;26.90;48.40;;;;;;5012301;28;20398;-60
2022/08/07 12:28:08;;;;;;;3.70;2.70;;;27.10;49.30;;;;;;5012210;28;20125;-61
2022/08/07 12:30:39;;;;;;;4.72;2.88;;;27.10;48.60;;;;;;5012190;28;20418;-60
2022/08/07 12:33:18;;;;;;;3.63;2.75;;;27.20;49.20;;;;;;5012253;28;20050;-60
2022/08/07 12:35:51;;;;;;;5.07;2.60;;;27.30;48.70;;;;;;5012202;28;20045;-60
2022/08/07 12:38:19;;;;;;;4.30;2.60;;;27.30;49.20;;;;;;4994757;28;20490;-60
2022/08/07 12:40:48;;;;;;;3.13;2.60;;;27.30;49.40;;;;;;5011782;28;20116;-60
2022/08/07 12:43:18;;;;;;;5.22;2.67;;;27.30;48.50;;;;;;5012259;28;20038;-60
2022/08/07 12:46:10;;;;;;;3.25;2.50;;;27.40;49.20;;;;;;4977886;28;20048;-60
2022/08/07 12:49:01;;;;;;;3.20;2.40;;;27.40;49.20;;;;;;5011882;28;20090;-60
2022/08/07 12:51:36;;;;;;;3.50;2.45;;;27.50;48.50;;;;;;5012133;28;20402;-60
2022/08/07 12:54:25;;;;;;;6.20;2.65;;;27.50;48.60;;;;;;5011593;28;20084;-60
2022/08/07 12:56:54;;;;;;;5.75;2.65;;;27.50;48.00;;;;;;5011791;28;20544;-60
2022/08/07 12:59:26;;;;;;;3.15;2.47;;;27.30;47.70;;;;;;4994574;28;20034;-60
2022/08/07 13:02:01;;;;;;;5.88;2.33;;;27.20;47.80;;;;;;5011834;28;20054;-60
2022/08/07 13:04:32;;;;;;;3.65;2.40;;;26.90;48.80;;;;;;5011755;28;20046;-60
2022/08/07 13:07:35;;;;;;;3.10;2.40;;;26.70;48.60;;;;;;5012149;28;20389;-60
2022/08/07 13:10:13;;;;;;;4.10;2.50;;;26.90;48.70;;;;;;4950635;29;20051;-61
2022/08/07 13:13:09;;;;;;;3.17;2.20;;;26.70;47.10;;;;;;4951632;29;20404;-60
2022/08/07 13:15:37;;;;;;;;;;;26.50;48.40;;;;;;4952078;29;20495;-60
2022/08/07 13:18:15;;;;;;;3.60;2.17;;;26.20;48.70;;;;;;4950142;29;19974;-57
2022/08/07 13:20:49;;;;;;;3.47;2.13;;;26.00;48.00;;;;;;4935469;29;20400;-57
2022/08/07 13:23:33;;;;;;;4.72;2.00;;;26.00;48.40;;;;;;4935825;29;20047;-57
2022/08/07 13:26:09;;;;;;;4.55;2.30;;;26.20;48.00;;;;;;4935413;29;20062;-57
2022/08/07 13:28:48;;;;;;;3.05;2.13;;;26.40;48.50;;;;;;4951088;29;20522;-58